Time;durP1;ratioP1;P1;durP2;ratioP2;P2;SDS_P1;SDS_P2;PMS_P1;PMS_P2;Temp;Humidity;BMP_temperature;BMP_pressure;BME280_temperature;BME280_humidity;BME280_pressure;Samples;Min_cycle;Max_cycle;Signal;HPM_P1;HPM_P2
2023/03/20 00:00:15;;;;;;;5.40;3.45;;;7.90;99.90;;;;;;5089020;28;20043;-81
2023/03/20 00:02:41;;;;;;;6.13;3.13;;;7.70;99.90;;;;;;5107625;28;20047;-80
2023/03/20 00:05:18;;;;;;;7.05;3.42;;;7.90;99.90;;;;;;5106602;28;20393;-80
2023/03/20 00:07:45;;;;;;;7.00;3.75;;;7.70;99.90;;;;;;5106656;28;20038;-80
2023/03/20 00:10:11;;;;;;;6.88;3.42;;;8.20;99.90;;;;;;5110137;27;20103;-81
2023/03/20 00:12:37;;;;;;;7.50;3.90;;;7.70;99.90;;;;;;5128909;27;20475;-80
2023/03/20 00:15:06;;;;;;;5.80;3.78;;;8.80;99.90;;;;;;5111489;27;20058;-81
2023/03/20 00:17:32;;;;;;;10.98;3.95;;;7.70;99.90;;;;;;5109581;27;20058;-80
2023/03/20 00:19:58;;;;;;;9.10;3.78;;;7.70;99.90;;;;;;5093776;27;20598;-81
2023/03/20 00:22:24;;;;;;;10.60;4.90;;;9.00;99.90;;;;;;5093220;27;20130;-81
2023/03/20 00:24:49;;;;;;;5.50;3.50;;;8.80;99.90;;;;;;5092872;27;20039;-80
2023/03/20 00:27:16;;;;;;;7.28;3.95;;;7.70;99.90;;;;;;5093903;27;20043;-81
2023/03/20 00:29:43;;;;;;;11.85;4.30;;;7.70;99.90;;;;;;5109618;27;20115;-81
2023/03/20 00:32:13;;;;;;;8.18;3.85;;;7.60;99.90;;;;;;5111043;27;20050;-80
2023/03/20 00:34:38;;;;;;;9.10;3.72;;;7.70;99.90;;;;;;5109696;27;20047;-81
2023/03/20 00:37:04;;;;;;;6.72;3.40;;;7.60;99.90;;;;;;5110524;27;20524;-80
2023/03/20 00:39:30;;;;;;;7.15;3.28;;;7.60;99.90;;;;;;5093447;27;20046;-81
2023/03/20 00:42:05;;;;;;;6.82;3.20;;;7.60;99.90;;;;;;5109576;27;20047;-81
2023/03/20 00:44:41;;;;;;;7.38;3.38;;;7.60;99.90;;;;;;5129611;27;20043;-81
2023/03/20 00:47:16;;;;;;;4.97;3.10;;;7.70;99.90;;;;;;5127729;27;20054;-81
2023/03/20 00:49:44;;;;;;;5.30;2.63;;;8.30;99.90;;;;;;5093175;27;20546;-81
2023/03/20 00:52:13;;;;;;;8.52;3.45;;;7.70;99.90;;;;;;5109458;27;20047;-81
2023/03/20 00:54:39;;;;;;;7.78;4.20;;;7.60;99.90;;;;;;5109839;27;20058;-81
2023/03/20 00:57:11;;;;;;;4.75;2.72;;;7.60;99.90;;;;;;5110351;27;20039;-80
2023/03/20 00:59:41;;;;;;;9.05;3.58;;;8.40;99.90;;;;;;5109533;27;20074;-81
2023/03/20 01:02:10;;;;;;;12.00;2.95;;;8.00;99.90;;;;;;5111152;27;20390;-81
2023/03/20 01:04:39;;;;;;;7.95;3.42;;;7.60;99.90;;;;;;5108843;27;20126;-81
2023/03/20 01:07:06;;;;;;;5.47;3.03;;;8.00;99.90;;;;;;5109737;27;20126;-80
2023/03/20 01:09:32;;;;;;;10.10;3.00;;;7.50;99.90;;;;;;5109358;27;20565;-81
2023/03/20 01:12:00;;;;;;;9.07;3.55;;;8.40;99.90;;;;;;5109272;27;20035;-81
2023/03/20 01:14:26;;;;;;;10.32;3.22;;;7.60;99.90;;;;;;5093006;27;20046;-81
2023/03/20 01:16:51;;;;;;;4.88;3.10;;;8.20;99.90;;;;;;5108423;27;20043;-81
2023/03/20 01:19:17;;;;;;;10.45;3.42;;;8.10;99.90;;;;;;5093003;27;20063;-81
2023/03/20 01:21:43;;;;;;;13.63;3.72;;;7.50;99.90;;;;;;5126317;27;20043;-81
2023/03/20 01:24:09;;;;;;;8.13;3.35;;;8.60;99.90;;;;;;5109659;27;20134;-80
2023/03/20 01:26:37;;;;;;;6.97;3.53;;;7.60;99.90;;;;;;5108898;27;20039;-81
2023/03/20 01:29:03;;;;;;;15.00;3.70;;;7.50;99.90;;;;;;5108905;27;20043;-81
2023/03/20 01:31:29;;;;;;;6.35;3.25;;;7.70;99.90;;;;;;5128107;27;20047;-81
2023/03/20 01:33:55;;;;;;;7.38;3.33;;;7.60;99.90;;;;;;5074112;27;20058;-80
2023/03/20 01:36:23;;;;;;;9.13;3.50;;;8.70;99.90;;;;;;5109937;27;20092;-81
2023/03/20 01:38:54;;;;;;;10.60;3.40;;;7.60;99.90;;;;;;5108713;27;20051;-81
2023/03/20 01:41:23;;;;;;;7.32;3.85;;;7.90;99.90;;;;;;5109524;27;20410;-81
2023/03/20 01:43:49;;;;;;;12.77;3.28;;;7.70;99.90;;;;;;5108944;27;20470;-81
2023/03/20 01:46:21;;;;;;;8.48;3.42;;;7.60;99.90;;;;;;5091794;27;20118;-81
2023/03/20 01:48:50;;;;;;;5.90;3.53;;;7.50;99.90;;;;;;5110069;27;20432;-81
2023/03/20 01:51:17;;;;;;;7.85;3.92;;;8.80;99.90;;;;;;5107807;27;20058;-81
2023/03/20 01:53:45;;;;;;;8.48;3.60;;;7.90;99.90;;;;;;5127867;27;20475;-80
2023/03/20 01:56:13;;;;;;;10.70;4.78;;;7.60;99.90;;;;;;5107999;27;20040;-80
2023/03/20 01:58:45;;;;;;;9.85;4.03;;;8.70;99.90;;;;;;5108412;27;20050;-80
2023/03/20 02:01:12;;;;;;;12.13;4.10;;;7.60;99.90;;;;;;5109086;27;20398;-80
2023/03/20 02:03:40;;;;;;;11.00;4.35;;;7.50;99.90;;;;;;5107954;27;20043;-80
2023/03/20 02:06:07;;;;;;;9.98;4.10;;;8.10;99.90;;;;;;5128004;27;20046;-80
2023/03/20 02:08:40;;;;;;;10.75;4.13;;;7.60;99.90;;;;;;5126039;27;20054;-80
2023/03/20 02:11:07;;;;;;;10.65;4.30;;;7.60;99.90;;;;;;5127068;27;20043;-80
2023/03/20 02:13:34;;;;;;;12.38;4.47;;;7.60;99.90;;;;;;5090882;27;20051;-80
2023/03/20 02:16:09;;;;;;;10.43;4.35;;;8.50;99.90;;;;;;5090764;27;20043;-80
2023/03/20 02:18:37;;;;;;;7.97;4.15;;;7.60;99.90;;;;;;5108577;27;20107;-80
2023/03/20 02:21:31;;;;;;;9.05;5.43;;;7.70;99.90;;;;;;5107529;27;20127;-80
2023/03/20 02:24:28;;;;;;;13.88;6.13;;;7.60;99.90;;;;;;5093368;27;20051;-80
2023/03/20 02:27:00;;;;;;;15.95;5.60;;;7.60;99.90;;;;;;5108263;27;20055;-80
2023/03/20 02:29:54;;;;;;;11.27;5.57;;;7.60;99.90;;;;;;5107677;27;20072;-80
2023/03/20 02:32:38;;;;;;;;;;;7.60;99.90;;;;;;5109001;27;20039;-80
2023/03/20 02:35:04;;;;;;;11.98;4.70;;;7.60;99.90;;;;;;5108199;27;19974;-80
2023/03/20 02:37:41;;;;;;;13.55;5.50;;;7.80;99.90;;;;;;5090399;27;20070;-80
2023/03/20 02:40:29;;;;;;;10.90;5.18;;;7.20;99.90;;;;;;5108726;27;20049;-80
2023/03/20 02:43:01;;;;;;;23.35;7.07;;;8.00;99.90;;;;;;5107181;27;20043;-80
2023/03/20 02:45:30;;;;;;;15.73;4.67;;;8.00;99.90;;;;;;5108323;27;20043;-80
2023/03/20 02:48:15;;;;;;;13.20;5.82;;;7.70;99.90;;;;;;5107496;27;20054;-80
2023/03/20 02:50:50;;;;;;;18.10;5.57;;;7.60;99.90;;;;;;5089949;27;20039;-80
2023/03/20 02:53:40;;;;;;;9.98;5.35;;;7.70;99.90;;;;;;5108891;27;20107;-80
2023/03/20 02:56:24;;;;;;;21.45;5.53;;;7.70;99.90;;;;;;5106954;27;20047;-80
2023/03/20 02:59:22;;;;;;;16.55;5.82;;;7.20;99.90;;;;;;5107477;27;20046;-80
2023/03/20 03:02:01;;;;;;;20.85;6.13;;;7.70;99.90;;;;;;5108489;27;20500;-80
2023/03/20 03:04:33;;;;;;;19.10;7.05;;;7.90;99.90;;;;;;5106696;27;20097;-80
2023/03/20 03:07:02;;;;;;;21.85;6.40;;;7.70;99.90;;;;;;5090563;28;20109;-80
2023/03/20 03:09:37;;;;;;;14.82;5.90;;;7.80;99.90;;;;;;5107844;27;20046;-80
2023/03/20 03:12:20;;;;;;;16.60;5.53;;;7.70;99.90;;;;;;5106626;27;20502;-80
2023/03/20 03:14:52;;;;;;;15.93;5.53;;;7.70;99.90;;;;;;5108286;28;20078;-80
2023/03/20 03:17:22;;;;;;;14.25;4.10;;;8.30;99.90;;;;;;5106725;27;20043;-81
2023/03/20 03:19:56;;;;;;;16.20;6.03;;;8.30;99.90;;;;;;5107107;27;20092;-80
2023/03/20 03:22:23;;;;;;;15.90;6.03;;;8.20;99.90;;;;;;5107552;28;20180;-80
2023/03/20 03:24:51;;;;;;;17.63;5.55;;;8.50;99.90;;;;;;5106791;28;20490;-80
2023/03/20 03:27:52;;;;;;;22.23;6.70;;;8.70;99.90;;;;;;5107874;28;20049;-80
2023/03/20 03:30:31;;;;;;;13.82;6.28;;;7.80;99.90;;;;;;5106056;28;20065;-80
2023/03/20 03:33:16;;;;;;;14.32;6.82;;;7.80;99.90;;;;;;5125330;28;20118;-80
2023/03/20 03:35:42;;;;;;;20.77;6.00;;;7.90;99.90;;;;;;5107644;28;20083;-80
2023/03/20 03:38:19;;;;;;;14.88;5.95;;;8.30;99.90;;;;;;5105853;28;20104;-80
2023/03/20 03:40:55;;;;;;;15.50;6.70;;;8.60;99.90;;;;;;5107568;28;20047;-80
2023/03/20 03:43:38;;;;;;;13.10;5.65;;;8.20;99.90;;;;;;5125277;27;20085;-80
2023/03/20 03:46:10;;;;;;;16.23;6.47;;;8.80;99.90;;;;;;5094084;27;20043;-80
2023/03/20 03:48:48;;;;;;;13.68;6.10;;;8.10;99.90;;;;;;5112095;27;20115;-80
2023/03/20 03:51:18;;;;;;;17.95;6.70;;;8.70;99.90;;;;;;5110736;27;20055;-80
2023/03/20 03:53:49;;;;;;;19.73;6.65;;;8.10;99.90;;;;;;5111556;27;20092;-80
2023/03/20 03:56:19;;;;;;;17.90;6.22;;;7.80;99.90;;;;;;5093883;27;20046;-81
2023/03/20 03:58:53;;;;;;;17.15;6.57;;;7.90;99.90;;;;;;5110556;27;20490;-80
2023/03/20 04:01:20;;;;;;;19.95;6.78;;;9.10;99.90;;;;;;5130414;27;20047;-80
2023/03/20 04:03:51;;;;;;;23.90;6.80;;;7.80;99.90;;;;;;5128485;27;20042;-80
2023/03/20 04:06:18;;;;;;;18.25;6.30;;;7.90;99.90;;;;;;5111704;27;20066;-81
2023/03/20 04:08:44;;;;;;;17.25;6.95;;;8.30;99.90;;;;;;5128772;27;20079;-81
2023/03/20 04:11:18;;;;;;;11.98;6.10;;;7.90;99.90;;;;;;5129467;27;20147;-80
2023/03/20 04:13:46;;;;;;;16.05;7.03;;;8.50;99.90;;;;;;5110961;27;20039;-80
2023/03/20 04:16:15;;;;;;;20.27;6.20;;;8.50;99.90;;;;;;5128616;27;20039;-81
2023/03/20 04:18:41;;;;;;;18.67;6.75;;;7.90;99.90;;;;;;5111450;27;20047;-81
2023/03/20 04:21:08;;;;;;;14.60;6.40;;;7.90;99.90;;;;;;5109990;27;20120;-81
2023/03/20 04:23:34;;;;;;;18.83;6.95;;;8.50;99.90;;;;;;5111435;27;20099;-80
2023/03/20 04:26:00;;;;;;;15.60;6.65;;;9.30;99.90;;;;;;5109811;27;20086;-81
2023/03/20 04:28:26;;;;;;;15.15;7.00;;;7.90;99.90;;;;;;5110517;27;20046;-81
2023/03/20 04:30:54;;;;;;;15.27;8.00;;;8.00;99.90;;;;;;5129234;27;20442;-81
2023/03/20 04:33:20;;;;;;;12.98;5.68;;;8.40;99.90;;;;;;5109657;27;20043;-80
2023/03/20 04:35:46;;;;;;;11.48;5.50;;;7.90;99.90;;;;;;5129708;27;20475;-81
2023/03/20 04:38:12;;;;;;;14.93;5.55;;;8.10;99.90;;;;;;5127724;27;20054;-80
2023/03/20 04:40:38;;;;;;;10.45;5.75;;;7.90;99.90;;;;;;5110820;27;20549;-81
2023/03/20 04:43:04;;;;;;;11.90;5.60;;;7.90;99.90;;;;;;5128227;27;20118;-81
2023/03/20 04:45:29;;;;;;;16.90;5.82;;;8.20;99.90;;;;;;5110346;27;20107;-81
2023/03/20 04:47:55;;;;;;;11.38;5.80;;;7.90;99.90;;;;;;5110047;27;20027;-81
2023/03/20 04:50:21;;;;;;;13.07;6.43;;;7.90;99.90;;;;;;5109594;27;20492;-80
2023/03/20 04:52:46;;;;;;;11.80;6.47;;;7.90;99.90;;;;;;5110981;27;20530;-81
2023/03/20 04:55:12;;;;;;;17.90;6.57;;;9.00;99.90;;;;;;5108771;27;20039;-80
2023/03/20 04:57:38;;;;;;;14.38;6.97;;;8.60;99.90;;;;;;5111138;27;20114;-81
2023/03/20 05:00:04;;;;;;;13.32;6.53;;;8.10;99.90;;;;;;5109582;27;20058;-81
2023/03/20 05:02:30;;;;;;;12.32;5.90;;;7.90;99.90;;;;;;5110764;27;20108;-81
2023/03/20 05:04:55;;;;;;;13.93;6.72;;;7.90;99.90;;;;;;5092619;27;20554;-81
2023/03/20 05:07:21;;;;;;;23.65;9.50;;;7.90;99.90;;;;;;5108909;27;20065;-81
2023/03/20 05:09:47;;;;;;;12.88;7.35;;;8.00;99.90;;;;;;5110261;27;20046;-81
2023/03/20 05:12:12;;;;;;;14.25;7.00;;;7.90;99.90;;;;;;5109042;27;20043;-81
2023/03/20 05:14:38;;;;;;;15.55;6.07;;;7.90;99.90;;;;;;5093338;27;20390;-81
2023/03/20 05:17:04;;;;;;;17.05;6.97;;;8.00;99.90;;;;;;5109000;27;20049;-80
2023/03/20 05:19:30;;;;;;;15.32;7.30;;;8.00;99.90;;;;;;5092451;27;20555;-80
2023/03/20 05:21:56;;;;;;;17.88;7.03;;;8.20;99.90;;;;;;5109004;27;20649;-80
2023/03/20 05:24:22;;;;;;;13.68;6.38;;;8.00;99.90;;;;;;5109361;27;20039;-80
2023/03/20 05:26:47;;;;;;;15.20;7.28;;;8.50;99.90;;;;;;5092782;27;20050;-80
2023/03/20 05:29:13;;;;;;;14.20;6.82;;;8.20;99.90;;;;;;5091488;27;20027;-80
2023/03/20 05:31:39;;;;;;;17.52;7.22;;;8.00;99.90;;;;;;5109939;27;20047;-80
2023/03/20 05:34:05;;;;;;;10.48;6.95;;;8.50;99.90;;;;;;5126896;27;20043;-82
2023/03/20 05:36:31;;;;;;;14.30;6.65;;;8.00;99.90;;;;;;5109599;27;20053;-80
2023/03/20 05:38:56;;;;;;;16.30;7.53;;;8.90;99.90;;;;;;5108518;27;20039;-81
2023/03/20 05:41:22;;;;;;;13.18;6.50;;;8.30;99.90;;;;;;5092115;27;20100;-82
2023/03/20 05:43:48;;;;;;;15.57;6.82;;;8.00;99.90;;;;;;5092241;27;20047;-82
2023/03/20 05:46:15;;;;;;;14.40;6.50;;;8.70;99.90;;;;;;5090951;27;20043;-82
2023/03/20 05:48:40;;;;;;;13.82;6.68;;;8.50;99.90;;;;;;5128521;27;20050;-82
2023/03/20 05:51:06;;;;;;;11.93;6.35;;;8.10;99.90;;;;;;5126520;27;20043;-81
2023/03/20 05:53:32;;;;;;;21.70;7.65;;;8.30;99.90;;;;;;5109101;27;20049;-83
2023/03/20 05:55:58;;;;;;;12.35;6.32;;;8.00;99.90;;;;;;5108271;27;20498;-82
2023/03/20 05:58:23;;;;;;;13.43;6.72;;;8.60;99.90;;;;;;5091459;27;20122;-82
2023/03/20 06:00:49;;;;;;;14.90;7.40;;;9.10;99.90;;;;;;5092345;27;20103;-83
2023/03/20 06:03:15;;;;;;;15.15;6.70;;;8.00;99.90;;;;;;5073958;27;20406;-83
2023/03/20 06:05:41;;;;;;;13.38;7.20;;;8.00;99.90;;;;;;5092441;27;20051;-81
2023/03/20 06:08:07;;;;;;;22.05;7.28;;;8.00;99.90;;;;;;5107230;27;20054;-83
2023/03/20 06:10:32;;;;;;;12.15;6.15;;;8.80;99.90;;;;;;5109462;27;20035;-85
2023/03/20 06:12:59;;;;;;;17.20;6.18;;;8.00;99.90;;;;;;5108252;27;20047;-81
2023/03/20 06:15:27;;;;;;;15.73;6.55;;;8.00;99.90;;;;;;5126677;27;20039;-82
2023/03/20 06:17:54;;;;;;;16.50;7.20;;;8.00;99.90;;;;;;5127171;27;20469;-84
2023/03/20 06:20:20;;;;;;;14.48;6.63;;;8.10;99.90;;;;;;5090691;27;20075;-85
2023/03/20 06:22:45;;;;;;;13.98;6.13;;;8.60;99.90;;;;;;5109158;27;20419;-81
2023/03/20 06:25:11;;;;;;;10.15;6.75;;;8.60;99.90;;;;;;5090067;27;20046;-81
2023/03/20 06:27:37;;;;;;;13.85;6.35;;;9.30;99.90;;;;;;5127572;27;20390;-81
2023/03/20 06:30:03;;;;;;;13.75;6.50;;;8.20;99.90;;;;;;5090628;27;20039;-81
2023/03/20 06:32:29;;;;;;;12.75;6.90;;;8.00;99.90;;;;;;5108374;27;20055;-80
2023/03/20 06:34:54;;;;;;;12.98;5.97;;;8.00;99.90;;;;;;5108271;27;20496;-81
2023/03/20 06:37:20;;;;;;;15.30;7.70;;;8.60;99.90;;;;;;5107122;27;20039;-81
2023/03/20 06:39:46;;;;;;;16.35;6.78;;;9.40;99.90;;;;;;5126982;27;20050;-81
2023/03/20 06:42:12;;;;;;;12.50;6.55;;;8.10;99.90;;;;;;5107217;27;20039;-81
2023/03/20 06:44:38;;;;;;;12.20;7.32;;;8.90;99.90;;;;;;5127237;27;20046;-81
2023/03/20 06:47:04;;;;;;;11.52;7.18;;;8.10;99.90;;;;;;5125978;27;20039;-80
2023/03/20 06:49:30;;;;;;;11.85;6.28;;;8.10;99.90;;;;;;5091318;27;20062;-82
2023/03/20 06:51:56;;;;;;;16.13;8.30;;;8.50;99.90;;;;;;5108677;27;20526;-80
2023/03/20 06:54:21;;;;;;;16.33;7.60;;;8.20;99.90;;;;;;5107242;27;20529;-80
2023/03/20 06:56:47;;;;;;;16.60;7.18;;;8.70;99.90;;;;;;5108303;27;20097;-80
2023/03/20 06:59:13;;;;;;;17.42;7.13;;;8.20;99.90;;;;;;5107000;27;20114;-80
2023/03/20 07:01:39;;;;;;;15.07;7.47;;;8.20;99.90;;;;;;5108789;27;20058;-82
2023/03/20 07:04:05;;;;;;;15.15;7.38;;;8.20;99.90;;;;;;5107279;27;20043;-82
2023/03/20 07:06:31;;;;;;;15.77;7.40;;;8.30;99.90;;;;;;5107867;27;20455;-82
2023/03/20 07:08:57;;;;;;;14.55;7.47;;;8.30;99.90;;;;;;5107139;27;20053;-82
2023/03/20 07:11:22;;;;;;;16.00;6.95;;;8.30;99.90;;;;;;5089796;27;20272;-82
2023/03/20 07:13:48;;;;;;;15.93;8.20;;;8.70;99.90;;;;;;5091121;27;20054;-82
2023/03/20 07:16:14;;;;;;;13.32;7.35;;;8.40;99.90;;;;;;5089350;28;20101;-82
2023/03/20 07:18:39;;;;;;;15.40;7.35;;;8.40;99.90;;;;;;5087388;28;20044;-82
2023/03/20 07:21:06;;;;;;;15.57;8.05;;;9.10;99.90;;;;;;5103320;28;20079;-82
2023/03/20 07:23:33;;;;;;;11.60;7.05;;;8.50;99.90;;;;;;5104504;28;20040;-82
2023/03/20 07:25:59;;;;;;;15.68;7.68;;;8.60;99.90;;;;;;5103607;28;20047;-82
2023/03/20 07:28:25;;;;;;;15.10;7.28;;;9.20;99.90;;;;;;5103043;28;20040;-82
2023/03/20 07:30:51;;;;;;;16.50;7.80;;;8.90;99.90;;;;;;5087290;28;20130;-82
2023/03/20 07:33:17;;;;;;;11.27;6.75;;;8.90;99.90;;;;;;5104086;28;20193;-82
2023/03/20 07:35:43;;;;;;;13.98;6.57;;;8.80;99.90;;;;;;5104422;28;20047;-82
2023/03/20 07:38:08;;;;;;;15.50;7.97;;;9.60;99.90;;;;;;5104212;28;20048;-83
2023/03/20 07:40:34;;;;;;;15.05;8.30;;;8.90;99.90;;;;;;5105588;28;20093;-81
2023/03/20 07:43:00;;;;;;;15.93;7.47;;;9.00;99.90;;;;;;5086504;28;20066;-82
2023/03/20 07:45:25;;;;;;;18.63;7.75;;;9.00;99.90;;;;;;5104601;28;20436;-80
2023/03/20 07:47:51;;;;;;;14.40;7.68;;;9.00;99.90;;;;;;5103875;28;20048;-81
2023/03/20 07:50:17;;;;;;;19.33;7.88;;;9.50;99.90;;;;;;5102590;28;20047;-80
2023/03/20 07:52:47;;;;;;;15.23;7.75;;;9.10;99.90;;;;;;5105517;28;20043;-80
2023/03/20 07:55:13;;;;;;;16.45;7.68;;;9.10;99.90;;;;;;5104346;28;20071;-80
2023/03/20 07:57:39;;;;;;;18.38;8.50;;;9.40;99.90;;;;;;5105768;28;20093;-81
2023/03/20 08:00:05;;;;;;;23.17;8.73;;;9.60;99.90;;;;;;5104755;28;20047;-81
2023/03/20 08:02:33;;;;;;;14.25;6.93;;;9.20;99.90;;;;;;5086800;28;20416;-81
2023/03/20 08:04:59;;;;;;;12.70;7.43;;;9.20;99.90;;;;;;5104143;28;20456;-81
2023/03/20 08:07:25;;;;;;;15.05;7.35;;;9.20;99.90;;;;;;5104099;28;20036;-81
2023/03/20 08:09:51;;;;;;;15.23;7.88;;;9.30;99.90;;;;;;5105472;28;20032;-81
2023/03/20 08:12:17;;;;;;;16.95;8.38;;;9.40;99.90;;;;;;5104117;28;20101;-81
2023/03/20 08:14:43;;;;;;;14.82;7.80;;;9.40;99.90;;;;;;5103781;28;20048;-81
2023/03/20 08:17:08;;;;;;;14.85;6.80;;;9.40;99.90;;;;;;5102658;28;20067;-81
2023/03/20 08:19:35;;;;;;;19.85;8.82;;;9.40;99.90;;;;;;5082658;28;20044;-81
2023/03/20 08:22:01;;;;;;;16.20;7.75;;;9.40;99.90;;;;;;5083104;28;20086;-81
2023/03/20 08:24:27;;;;;;;15.93;8.48;;;9.40;99.90;;;;;;5083395;28;20043;-81
2023/03/20 08:26:52;;;;;;;18.85;9.15;;;9.40;99.90;;;;;;5083680;28;20056;-81
2023/03/20 08:29:18;;;;;;;16.20;8.05;;;9.30;99.90;;;;;;5083360;28;20077;-81
2023/03/20 08:31:45;;;;;;;19.02;9.00;;;9.30;99.90;;;;;;5086575;28;20052;-81
2023/03/20 08:34:11;;;;;;;19.88;8.63;;;9.40;99.90;;;;;;5086801;28;20394;-81
2023/03/20 08:36:38;;;;;;;14.35;7.88;;;9.40;99.90;;;;;;5087068;28;20101;-81
2023/03/20 08:39:05;;;;;;;23.85;8.50;;;9.30;99.90;;;;;;5087964;28;20048;-81
2023/03/20 08:41:32;;;;;;;17.98;8.35;;;9.30;99.90;;;;;;5087107;28;20044;-81
2023/03/20 08:43:58;;;;;;;11.70;7.07;;;9.40;99.90;;;;;;5088621;28;20411;-81
2023/03/20 08:46:24;;;;;;;18.90;8.23;;;9.90;99.90;;;;;;5086937;28;20122;-81
2023/03/20 08:48:50;;;;;;;15.80;7.95;;;9.40;99.90;;;;;;5070489;28;20048;-81
2023/03/20 08:51:16;;;;;;;19.35;9.55;;;9.40;99.90;;;;;;5087255;28;20433;-79
2023/03/20 08:53:41;;;;;;;16.30;8.20;;;10.50;99.90;;;;;;5087361;28;20040;-80
2023/03/20 08:56:08;;;;;;;14.68;8.68;;;9.40;99.90;;;;;;5087278;28;20040;-81
2023/03/20 08:58:34;;;;;;;17.30;7.43;;;9.50;99.90;;;;;;5087066;28;20040;-82
2023/03/20 09:01:07;;;;;;;20.27;8.13;;;9.60;99.90;;;;;;5088304;28;20068;-82
2023/03/20 09:03:35;;;;;;;19.33;8.68;;;9.70;99.90;;;;;;5068419;28;20058;-82
2023/03/20 09:06:04;;;;;;;16.45;7.45;;;10.00;99.90;;;;;;5086588;28;20457;-82
2023/03/20 09:08:30;;;;;;;15.85;8.30;;;9.80;99.90;;;;;;5085447;28;20427;-82
2023/03/20 09:10:56;;;;;;;14.13;7.93;;;9.90;99.90;;;;;;5085525;28;20040;-82
2023/03/20 09:13:22;;;;;;;15.52;7.57;;;10.00;99.90;;;;;;5085979;28;20502;-82
2023/03/20 09:15:48;;;;;;;16.17;9.32;;;10.10;99.90;;;;;;5085820;28;20051;-83
2023/03/20 09:18:14;;;;;;;16.73;7.93;;;10.20;99.90;;;;;;5096651;27;20070;-82
2023/03/20 09:20:39;;;;;;;13.68;7.22;;;10.60;99.90;;;;;;5091237;27;20091;-82
2023/03/20 09:23:05;;;;;;;17.88;8.02;;;10.30;99.90;;;;;;5109637;27;20039;-82
2023/03/20 09:25:31;;;;;;;21.38;8.00;;;10.30;99.90;;;;;;5108666;27;20046;-81
2023/03/20 09:27:57;;;;;;;19.27;6.90;;;10.40;99.90;;;;;;5109212;27;20115;-81
2023/03/20 09:30:23;;;;;;;13.02;6.05;;;10.40;99.90;;;;;;5092044;27;20046;-81
2023/03/20 09:32:50;;;;;;;14.73;7.18;;;10.50;99.90;;;;;;5090937;27;20099;-81
2023/03/20 09:35:18;;;;;;;16.80;7.72;;;10.60;99.90;;;;;;5109916;27;20115;-81
2023/03/20 09:37:44;;;;;;;15.13;6.32;;;10.60;99.90;;;;;;5107840;27;20494;-81
2023/03/20 09:40:23;;;;;;;17.88;6.43;;;10.70;99.90;;;;;;5076104;27;20043;-82
2023/03/20 09:42:57;;;;;;;17.30;6.82;;;10.60;99.90;;;;;;5126412;27;20039;-81
2023/03/20 09:45:39;;;;;;;15.27;6.80;;;10.60;99.90;;;;;;5127300;27;20053;-82
2023/03/20 09:48:18;;;;;;;16.00;7.63;;;10.70;99.90;;;;;;5110105;27;20115;-82
2023/03/20 09:51:03;;;;;;;18.38;7.65;;;10.80;99.90;;;;;;5126774;27;20074;-82
2023/03/20 09:53:46;;;;;;;15.60;6.30;;;10.90;99.90;;;;;;5127457;27;20047;-82
2023/03/20 09:56:24;;;;;;;18.63;6.82;;;11.00;99.90;;;;;;5109523;27;20444;-82
2023/03/20 09:58:55;;;;;;;14.55;6.75;;;11.00;99.90;;;;;;5107740;27;20047;-82
2023/03/20 10:01:26;;;;;;;16.13;7.47;;;11.10;99.90;;;;;;5127985;27;20058;-82
2023/03/20 10:03:57;;;;;;;14.85;6.38;;;11.10;99.90;;;;;;5108028;27;20313;-81
2023/03/20 10:06:23;;;;;;;23.58;7.22;;;11.10;99.90;;;;;;5127132;27;20039;-80
2023/03/20 10:08:49;;;;;;;18.45;7.05;;;11.40;99.90;;;;;;5091376;27;20047;-81
2023/03/20 10:12:07;;;;;;;18.40;6.78;;;11.30;99.90;;;;;;5126415;27;20086;-81
2023/03/20 10:14:36;;;;;;;11.82;5.88;;;11.40;99.90;;;;;;5065599;27;20057;-80
2023/03/20 10:17:10;;;;;;;15.60;5.57;;;11.40;99.90;;;;;;5108330;27;20046;-81
2023/03/20 10:19:44;;;;;;;15.68;6.57;;;11.40;99.90;;;;;;5126023;27;20331;-81
2023/03/20 10:22:25;;;;;;;16.65;6.13;;;11.50;99.90;;;;;;5092329;27;20114;-81
2023/03/20 10:25:19;;;;;;;23.70;8.90;;;11.50;99.90;;;;;;5125749;27;20129;-81
2023/03/20 10:27:54;;;;;;;19.75;6.75;;;11.50;99.90;;;;;;5126626;27;20096;-80
2023/03/20 10:30:38;;;;;;;18.23;7.32;;;11.60;99.90;;;;;;5108246;27;20043;-80
2023/03/20 10:33:16;;;;;;;19.83;6.30;;;11.60;99.90;;;;;;5107060;27;20043;-80
2023/03/20 10:36:17;;;;;;;22.27;6.82;;;11.50;99.90;;;;;;5108664;27;20051;-81
2023/03/20 10:38:54;;;;;;;17.00;6.03;;;11.40;99.90;;;;;;5066061;27;20053;-81
2023/03/20 10:41:24;;;;;;;14.57;5.70;;;11.40;99.90;;;;;;5106624;27;20051;-81
2023/03/20 10:43:51;;;;;;;16.52;5.80;;;11.30;99.90;;;;;;5127202;27;20121;-81
2023/03/20 10:46:29;;;;;;;25.35;6.88;;;11.40;99.90;;;;;;5107082;27;20050;-80
2023/03/20 10:49:04;;;;;;;12.90;5.47;;;11.40;99.90;;;;;;5108443;27;20043;-81
2023/03/20 10:51:49;;;;;;;17.52;5.43;;;11.50;99.90;;;;;;5126095;27;20043;-81
2023/03/20 10:54:23;;;;;;;12.63;5.32;;;11.60;99.90;;;;;;5106650;27;20045;-80
2023/03/20 10:56:51;;;;;;;17.02;5.88;;;11.70;99.90;;;;;;5127582;27;20119;-81
2023/03/20 10:59:27;;;;;;;14.30;5.60;;;11.80;99.90;;;;;;5106760;27;20500;-81
2023/03/20 11:01:53;;;;;;;11.70;5.13;;;12.50;99.90;;;;;;5107979;27;20099;-81
2023/03/20 11:04:20;;;;;;;13.27;5.03;;;12.00;99.90;;;;;;5126014;27;20123;-81
2023/03/20 11:06:58;;;;;;;14.02;4.85;;;11.90;99.90;;;;;;5106772;27;20065;-81
2023/03/20 11:09:25;;;;;;;13.43;5.20;;;11.80;99.90;;;;;;5091111;27;20050;-81
2023/03/20 11:11:58;;;;;;;18.98;4.82;;;11.70;99.90;;;;;;5073392;27;20047;-80
2023/03/20 11:14:31;;;;;;;19.73;6.18;;;11.60;99.90;;;;;;5107874;27;20027;-81
2023/03/20 11:17:00;;;;;;;14.57;4.70;;;11.50;99.90;;;;;;5125987;27;20046;-80
2023/03/20 11:19:31;;;;;;;13.73;4.45;;;11.40;99.90;;;;;;5125132;27;20152;-81
2023/03/20 11:22:00;;;;;;;11.32;4.35;;;11.30;99.90;;;;;;5107604;27;20092;-80
2023/03/20 11:24:33;;;;;;;13.73;4.10;;;11.20;99.90;;;;;;5124896;27;20463;-80
2023/03/20 11:27:13;;;;;;;;;;;11.10;99.90;;;;;;5108693;28;20081;-81
2023/03/20 11:29:41;;;;;;;14.18;4.40;;;11.20;99.90;;;;;;5125086;28;20386;-81
2023/03/20 11:32:31;;;;;;;16.73;4.65;;;11.20;99.90;;;;;;5107432;28;20464;-80
2023/03/20 11:35:10;;;;;;;15.20;4.40;;;11.10;99.90;;;;;;5126694;28;20131;-81
2023/03/20 11:37:43;;;;;;;14.98;4.50;;;11.10;99.90;;;;;;5124902;28;20054;-81
2023/03/20 11:40:20;;;;;;;15.40;4.30;;;11.10;99.90;;;;;;5126375;28;20114;-80
2023/03/20 11:43:00;;;;;;;16.02;4.47;;;11.00;99.90;;;;;;5125414;28;20051;-81
2023/03/20 11:45:27;;;;;;;13.80;3.92;;;11.00;99.90;;;;;;5106603;28;20047;-81
2023/03/20 11:47:55;;;;;;;9.88;4.15;;;11.00;99.90;;;;;;5126379;28;20406;-80
2023/03/20 11:50:28;;;;;;;7.57;3.38;;;10.90;99.90;;;;;;5106277;28;20047;-80
2023/03/20 11:52:54;;;;;;;;;;;11.00;99.90;;;;;;5107920;28;20043;-81
2023/03/20 11:55:38;;;;;;;13.88;3.88;;;11.00;99.90;;;;;;5107026;28;19925;-81
2023/03/20 11:58:05;;;;;;;10.02;3.50;;;11.00;99.90;;;;;;5106483;28;20490;-81
2023/03/20 12:00:41;;;;;;;15.00;2.88;;;11.00;99.90;;;;;;5090498;28;20046;-81
2023/03/20 12:03:41;;;;;;;11.45;3.20;;;11.00;99.90;;;;;;5105841;28;20526;-81
2023/03/20 12:06:13;;;;;;;8.35;3.28;;;10.80;99.90;;;;;;5109367;27;20409;-80
2023/03/20 12:08:40;;;;;;;12.02;3.88;;;10.70;99.90;;;;;;5111205;27;20047;-80
2023/03/20 12:11:26;;;;;;;14.75;3.95;;;10.60;99.90;;;;;;5129051;27;20073;-80
2023/03/20 12:13:54;;;;;;;11.07;3.38;;;10.60;99.90;;;;;;5111553;27;20088;-81
2023/03/20 12:16:23;;;;;;;8.48;3.65;;;10.60;99.90;;;;;;5093260;27;20043;-81
2023/03/20 12:18:58;;;;;;;12.55;3.42;;;10.50;99.90;;;;;;5110883;27;20451;-81
2023/03/20 12:21:46;;;;;;;11.23;3.50;;;10.40;99.90;;;;;;5110442;27;20057;-81
2023/03/20 12:24:35;;;;;;;9.43;2.75;;;10.60;99.90;;;;;;5110066;27;20398;-81
2023/03/20 12:27:22;;;;;;;17.50;3.10;;;10.30;99.90;;;;;;5129613;27;20122;-80
2023/03/20 12:30:00;;;;;;;7.05;2.72;;;10.20;99.90;;;;;;5110036;27;20054;-81
2023/03/20 12:33:11;;;;;;;9.50;2.85;;;10.20;99.90;;;;;;5109523;27;20058;-81
2023/03/20 12:35:43;;;;;;;7.03;2.20;;;10.20;99.90;;;;;;5106517;27;20055;-81
2023/03/20 12:38:32;;;;;;;7.15;2.60;;;10.10;99.90;;;;;;5109846;27;20051;-81
2023/03/20 12:41:10;;;;;;;6.75;2.33;;;10.10;99.90;;;;;;5128165;27;20051;-81
2023/03/20 12:44:23;;;;;;;9.52;2.20;;;10.10;99.90;;;;;;5129180;27;20494;-81
2023/03/20 12:47:15;;;;;;;7.95;2.05;;;10.00;99.90;;;;;;5068790;27;20070;-80
2023/03/20 12:49:50;;;;;;;9.48;2.90;;;9.80;99.90;;;;;;5122639;27;20073;-79
2023/03/20 12:52:21;;;;;;;4.93;2.22;;;9.90;99.90;;;;;;5111093;27;20394;-80
2023/03/20 12:55:14;;;;;;;12.52;2.28;;;9.80;99.90;;;;;;5109638;27;20039;-80
2023/03/20 12:57:55;;;;;;;6.30;2.22;;;9.80;99.90;;;;;;5109761;27;20051;-80
2023/03/20 13:01:00;;;;;;;4.22;1.85;;;9.80;99.90;;;;;;5110668;27;20054;-83
2023/03/20 13:03:35;;;;;;;9.65;2.70;;;10.00;99.90;;;;;;5108904;27;20039;-80
2023/03/20 13:06:17;;;;;;;9.43;2.70;;;9.80;99.90;;;;;;5109565;27;20506;-80